Time;durP1;ratioP1;P1;durP2;ratioP2;P2;SDS_P1;SDS_P2;PMS_P1;PMS_P2;Temp;Humidity;BMP_temperature;BMP_pressure;BME280_temperature;BME280_humidity;BME280_pressure;Samples;Min_cycle;Max_cycle;Signal;HPM_P1;HPM_P2
2022/06/08 00:00:14;;;;;;;11.73;6.93;;;13.40;99.90;;;;;;4993373;28;20230;-69
2022/06/08 00:02:45;;;;;;;8.10;6.53;;;13.30;99.90;;;;;;4993518;28;20217;-71
2022/06/08 00:05:13;;;;;;;8.55;7.43;;;13.30;99.90;;;;;;4993262;28;20243;-71
2022/06/08 00:07:40;;;;;;;12.85;6.72;;;13.30;99.90;;;;;;4990760;28;20217;-70
2022/06/08 00:10:08;;;;;;;10.65;6.20;;;13.20;99.90;;;;;;4991082;28;20201;-72
2022/06/08 00:12:37;;;;;;;7.80;7.00;;;13.20;99.90;;;;;;4992886;28;20228;-72
2022/06/08 00:15:06;;;;;;;11.20;7.97;;;13.20;99.90;;;;;;4992095;28;20287;-70
2022/06/08 00:17:33;;;;;;;12.30;8.65;;;13.10;99.90;;;;;;4997047;28;20205;-71
2022/06/08 00:20:00;;;;;;;12.65;9.07;;;13.10;99.90;;;;;;4996113;28;20755;-72
2022/06/08 00:22:27;;;;;;;8.98;8.10;;;13.10;99.90;;;;;;4993110;28;20224;-70
2022/06/08 00:24:54;;;;;;;13.27;8.05;;;13.10;99.90;;;;;;4993668;28;20263;-70
2022/06/08 00:27:21;;;;;;;10.57;7.72;;;13.10;99.90;;;;;;4995680;28;20213;-72
2022/06/08 00:29:50;;;;;;;9.60;8.60;;;13.10;99.90;;;;;;4992824;28;20201;-68
2022/06/08 00:32:17;;;;;;;9.00;8.05;;;13.10;99.90;;;;;;4992218;28;20252;-70
2022/06/08 00:34:44;;;;;;;10.15;8.05;;;13.10;99.90;;;;;;4992828;28;20655;-73
2022/06/08 00:37:12;;;;;;;10.35;9.13;;;13.10;99.90;;;;;;4988365;28;20201;-72
2022/06/08 00:39:39;;;;;;;11.18;7.40;;;13.00;99.90;;;;;;4989239;28;20232;-69
2022/06/08 00:42:09;;;;;;;12.23;8.45;;;13.00;99.90;;;;;;4990480;28;20233;-69
2022/06/08 00:44:41;;;;;;;10.13;7.65;;;13.00;99.90;;;;;;4987687;28;20769;-70
2022/06/08 00:47:14;;;;;;;10.60;8.60;;;13.00;99.90;;;;;;4991152;28;20232;-69
2022/06/08 00:49:46;;;;;;;8.90;8.00;;;13.00;99.90;;;;;;4987892;28;20241;-70
2022/06/08 00:52:14;;;;;;;10.90;8.30;;;13.00;99.90;;;;;;4996363;28;20259;-69
2022/06/08 00:54:45;;;;;;;9.40;8.40;;;13.00;99.90;;;;;;4998753;28;20603;-72
2022/06/08 00:57:16;;;;;;;8.68;7.35;;;13.00;99.90;;;;;;4995223;28;20606;-70
2022/06/08 00:59:53;;;;;;;13.82;8.23;;;13.00;99.90;;;;;;4992222;28;20300;-69
2022/06/08 01:02:22;;;;;;;11.70;8.95;;;13.00;99.90;;;;;;4999028;28;20236;-68
2022/06/08 01:04:49;;;;;;;11.20;9.20;;;13.00;99.90;;;;;;4992309;28;20205;-70
2022/06/08 01:07:21;;;;;;;10.50;8.98;;;13.00;99.90;;;;;;4993208;28;20239;-69
2022/06/08 01:09:50;;;;;;;10.15;9.02;;;13.00;99.90;;;;;;4993116;28;20211;-71
2022/06/08 01:12:19;;;;;;;10.73;8.48;;;13.00;99.90;;;;;;4999125;28;20231;-71
2022/06/08 01:14:48;;;;;;;11.10;8.05;;;13.00;99.90;;;;;;5002025;28;20236;-70
2022/06/08 01:17:18;;;;;;;10.00;8.38;;;13.00;99.90;;;;;;5008688;28;20250;-70
2022/06/08 01:19:49;;;;;;;10.15;8.40;;;13.00;99.90;;;;;;4980725;28;20316;-72
2022/06/08 01:22:19;;;;;;;12.07;9.05;;;13.00;99.90;;;;;;4989440;28;20253;-72
2022/06/08 01:24:49;;;;;;;10.73;8.55;;;13.00;99.90;;;;;;4994300;28;20684;-72
2022/06/08 01:27:30;;;;;;;10.75;9.30;;;13.00;99.90;;;;;;4997000;28;20653;-69
2022/06/08 01:30:20;;;;;;;11.27;7.88;;;12.90;99.90;;;;;;5004010;28;20248;-72
2022/06/08 01:33:13;;;;;;;11.20;9.90;;;12.90;99.90;;;;;;4992050;28;20749;-69
2022/06/08 01:35:58;;;;;;;14.15;9.23;;;12.90;99.90;;;;;;4985957;28;20207;-69
2022/06/08 01:38:33;;;;;;;13.65;10.25;;;12.90;99.90;;;;;;4985089;28;20228;-70
2022/06/08 01:41:25;;;;;;;12.73;11.43;;;12.80;99.90;;;;;;5001237;28;20227;-72
2022/06/08 01:44:07;;;;;;;14.02;9.50;;;12.80;99.90;;;;;;5003665;28;20239;-69
2022/06/08 01:46:41;;;;;;;12.57;10.77;;;12.80;99.90;;;;;;4986207;28;20251;-71
2022/06/08 01:49:20;;;;;;;12.25;10.95;;;12.70;99.90;;;;;;4981473;28;20267;-70
2022/06/08 01:52:09;;;;;;;15.10;10.27;;;12.60;99.90;;;;;;5001967;28;20274;-71
2022/06/08 01:54:50;;;;;;;15.40;10.70;;;12.60;99.90;;;;;;5000456;28;20276;-70
2022/06/08 01:57:39;;;;;;;13.88;11.15;;;12.50;99.90;;;;;;4999147;28;20210;-72
2022/06/08 02:00:10;;;;;;;23.75;11.48;;;12.50;99.90;;;;;;4994835;28;20365;-74
2022/06/08 02:02:47;;;;;;;12.52;9.93;;;12.50;99.90;;;;;;4997019;28;20251;-70
2022/06/08 02:05:20;;;;;;;11.15;9.70;;;12.50;99.90;;;;;;4999241;28;20239;-72
2022/06/08 02:07:59;;;;;;;14.93;12.60;;;12.50;99.90;;;;;;4998492;28;20204;-72
2022/06/08 02:10:43;;;;;;;15.05;11.35;;;12.50;99.90;;;;;;4995479;28;20669;-70
2022/06/08 02:13:17;;;;;;;15.30;12.07;;;12.50;99.90;;;;;;4978537;28;20756;-71
2022/06/08 02:15:49;;;;;;;13.57;10.35;;;12.40;99.90;;;;;;4996951;28;20235;-72
2022/06/08 02:18:22;;;;;;;15.95;12.73;;;12.40;99.90;;;;;;5001838;28;20309;-70
2022/06/08 02:20:54;;;;;;;13.57;11.45;;;12.40;99.90;;;;;;5002076;28;20755;-71
2022/06/08 02:23:26;;;;;;;12.77;11.25;;;12.40;99.90;;;;;;5000688;28;20230;-71
2022/06/08 02:25:58;;;;;;;15.35;13.52;;;12.40;99.90;;;;;;4997557;28;20630;-69
2022/06/08 02:28:37;;;;;;;16.25;11.55;;;12.40;99.90;;;;;;4991837;28;20263;-71
2022/06/08 02:31:10;;;;;;;16.33;11.95;;;12.40;99.90;;;;;;4999591;28;20525;-68
2022/06/08 02:37:06;;;;;;;19.05;12.75;;;12.50;99.90;;;;;;4996289;28;20739;-69
2022/06/08 02:39:39;;;;;;;15.30;13.70;;;12.60;99.90;;;;;;4994561;28;20283;-70
2022/06/08 02:42:13;;;;;;;22.02;15.77;;;12.60;99.90;;;;;;4990137;28;20228;-72
2022/06/08 02:44:42;;;;;;;17.90;13.82;;;12.60;99.90;;;;;;4995403;28;20225;-72
2022/06/08 02:47:17;;;;;;;16.23;12.38;;;12.60;99.90;;;;;;4988394;28;20241;-73
2022/06/08 02:49:44;;;;;;;17.08;13.50;;;12.70;99.90;;;;;;4989107;28;20703;-70
2022/06/08 02:52:19;;;;;;;16.25;11.65;;;12.80;99.90;;;;;;4995943;28;20228;-71
2022/06/08 02:54:47;;;;;;;15.88;13.90;;;12.90;99.90;;;;;;4989795;28;20221;-70
2022/06/08 02:57:25;;;;;;;16.42;11.80;;;12.90;99.90;;;;;;4988288;28;20241;-72
2022/06/08 02:59:59;;;;;;;16.95;13.82;;;12.90;99.90;;;;;;4993443;28;20290;-70
2022/06/08 03:02:32;;;;;;;16.23;11.85;;;13.10;99.90;;;;;;4973163;28;20236;-70
2022/06/08 03:05:04;;;;;;;14.93;11.88;;;13.00;99.90;;;;;;4976853;28;20313;-72
2022/06/08 03:07:35;;;;;;;15.07;12.55;;;13.10;99.90;;;;;;4993662;28;20288;-72
2022/06/08 03:10:07;;;;;;;13.68;12.27;;;13.20;99.90;;;;;;4993440;28;20654;-70
2022/06/08 03:12:37;;;;;;;19.05;15.00;;;13.20;99.90;;;;;;5004224;28;20307;-70
2022/06/08 03:15:07;;;;;;;14.40;12.90;;;13.20;99.90;;;;;;4998888;28;20271;-70
2022/06/08 03:17:36;;;;;;;14.88;12.95;;;13.30;99.90;;;;;;5003172;28;20243;-70
2022/06/08 03:20:07;;;;;;;14.73;12.95;;;13.30;99.90;;;;;;5001976;28;20311;-70
2022/06/08 03:22:34;;;;;;;17.20;12.63;;;13.30;99.90;;;;;;4999716;28;20231;-73
2022/06/08 03:25:02;;;;;;;14.70;12.75;;;13.40;99.90;;;;;;4994626;28;20212;-69
2022/06/08 03:27:29;;;;;;;16.17;12.90;;;13.50;99.90;;;;;;4995302;28;20250;-71
2022/06/08 03:30:01;;;;;;;15.23;11.05;;;13.50;99.90;;;;;;4995382;28;20227;-71
2022/06/08 03:32:28;;;;;;;16.13;13.57;;;13.50;99.90;;;;;;4995330;28;20653;-71
2022/06/08 03:34:56;;;;;;;16.15;11.60;;;13.50;99.90;;;;;;4994942;28;20216;-69
2022/06/08 03:37:23;;;;;;;19.48;12.48;;;13.60;99.90;;;;;;5001068;28;20213;-68
2022/06/08 03:40:18;;;;;;;14.65;11.73;;;13.60;99.90;;;;;;4998516;28;20208;-69
2022/06/08 03:42:45;;;;;;;17.42;11.45;;;13.70;99.90;;;;;;4995150;28;20628;-69
2022/06/08 03:45:19;;;;;;;18.98;12.95;;;13.70;99.90;;;;;;4993733;28;20287;-69
2022/06/08 03:47:50;;;;;;;13.10;9.70;;;13.80;99.90;;;;;;4995505;28;20711;-70
2022/06/08 03:50:20;;;;;;;14.35;10.93;;;13.80;99.90;;;;;;4994931;28;20275;-68
2022/06/08 03:52:54;;;;;;;12.77;9.90;;;13.90;99.90;;;;;;4998166;28;20224;-70
2022/06/08 03:55:21;;;;;;;16.67;12.23;;;14.00;99.90;;;;;;5000936;28;20208;-72
2022/06/08 03:57:50;;;;;;;13.40;11.55;;;14.10;99.90;;;;;;5004775;28;20201;-71
2022/06/08 04:00:21;;;;;;;15.00;11.93;;;14.20;99.90;;;;;;4996387;28;20919;-69
2022/06/08 04:02:49;;;;;;;16.30;11.98;;;14.20;99.90;;;;;;4999924;28;20269;-68
2022/06/08 04:05:17;;;;;;;13.50;12.10;;;14.30;99.90;;;;;;4997616;28;20210;-71
2022/06/08 04:07:44;;;;;;;12.52;10.77;;;14.40;99.90;;;;;;4996182;28;20601;-72
2022/06/08 04:10:12;;;;;;;19.60;12.10;;;14.40;99.90;;;;;;4997842;28;20289;-72
2022/06/08 04:12:40;;;;;;;15.10;10.63;;;14.40;99.90;;;;;;4998154;28;20244;-71
2022/06/08 04:15:08;;;;;;;11.85;10.68;;;14.30;99.90;;;;;;4997678;28;20236;-71
2022/06/08 04:17:36;;;;;;;13.05;10.32;;;14.30;99.90;;;;;;4999909;28;20205;-69
2022/06/08 04:20:04;;;;;;;12.77;11.23;;;14.30;99.90;;;;;;4996959;28;20197;-71
2022/06/08 04:22:32;;;;;;;12.00;10.75;;;14.40;99.90;;;;;;5005767;28;20259;-68
2022/06/08 04:24:59;;;;;;;13.10;9.60;;;14.40;99.90;;;;;;5002401;28;20216;-68
2022/06/08 04:27:27;;;;;;;14.95;11.13;;;14.50;99.90;;;;;;4992332;28;20263;-69
2022/06/08 04:29:56;;;;;;;14.02;10.98;;;14.50;99.90;;;;;;4997091;28;20264;-69
2022/06/08 04:32:23;;;;;;;14.48;11.57;;;14.60;99.90;;;;;;5009467;28;20288;-69
2022/06/08 04:34:51;;;;;;;13.23;11.05;;;14.70;99.90;;;;;;5004592;28;20206;-71
2022/06/08 04:37:19;;;;;;;14.05;12.38;;;14.70;99.90;;;;;;4999090;28;20206;-70
2022/06/08 04:39:46;;;;;;;13.18;10.88;;;14.60;99.90;;;;;;4995307;28;20229;-73
2022/06/08 04:42:13;;;;;;;14.05;11.95;;;14.60;99.90;;;;;;4987747;28;20301;-71
2022/06/08 04:44:42;;;;;;;14.50;12.40;;;14.60;99.90;;;;;;4990952;28;20207;-71
2022/06/08 04:47:10;;;;;;;19.38;12.38;;;14.70;99.90;;;;;;4991378;28;20299;-71
2022/06/08 04:49:37;;;;;;;16.10;12.52;;;14.70;99.90;;;;;;4986060;28;20209;-70
2022/06/08 04:52:07;;;;;;;13.85;10.32;;;14.70;99.90;;;;;;4991135;28;20304;-70
2022/06/08 04:54:34;;;;;;;14.07;12.40;;;14.70;99.90;;;;;;4986808;28;20712;-69
2022/06/08 04:57:01;;;;;;;17.83;13.25;;;14.70;99.90;;;;;;4982162;28;20257;-70
2022/06/08 04:59:28;;;;;;;18.25;13.25;;;14.60;99.90;;;;;;4986594;28;20208;-70
2022/06/08 05:01:56;;;;;;;15.95;12.15;;;14.70;99.90;;;;;;4982979;28;20253;-73
2022/06/08 05:04:23;;;;;;;14.85;11.95;;;14.70;99.90;;;;;;4991735;28;20236;-73
2022/06/08 05:06:56;;;;;;;14.32;12.15;;;14.70;99.90;;;;;;4992701;28;20739;-70
2022/06/08 05:09:26;;;;;;;14.55;13.02;;;14.70;99.90;;;;;;4992889;28;20237;-72
2022/06/08 05:11:54;;;;;;;18.60;12.40;;;14.70;99.90;;;;;;4990419;28;20266;-70
2022/06/08 05:14:21;;;;;;;15.18;12.80;;;14.80;99.90;;;;;;4988785;28;20260;-70
2022/06/08 05:16:48;;;;;;;13.35;11.90;;;14.80;99.90;;;;;;4984659;28;20285;-71
2022/06/08 05:19:15;;;;;;;18.80;13.93;;;14.90;99.90;;;;;;4987311;28;20271;-70
2022/06/08 05:21:42;;;;;;;13.73;11.93;;;15.10;99.90;;;;;;4985719;28;20232;-69
2022/06/08 05:24:09;;;;;;;15.50;13.27;;;15.30;99.90;;;;;;4991629;28;20637;-73
2022/06/08 05:26:38;;;;;;;16.58;11.48;;;15.60;99.90;;;;;;4995425;28;20290;-71
2022/06/08 05:29:05;;;;;;;12.90;10.80;;;16.70;99.90;;;;;;5003189;28;20299;-72
2022/06/08 05:31:32;;;;;;;11.50;9.43;;;18.00;99.90;;;;;;5001412;28;20220;-70
2022/06/08 05:33:59;;;;;;;12.13;9.87;;;18.90;99.90;;;;;;4996017;28;20480;-73
2022/06/08 05:36:27;;;;;;;13.37;10.03;;;19.50;99.90;;;;;;4984195;28;20492;-70
2022/06/08 05:38:54;;;;;;;11.23;9.77;;;20.50;99.90;;;;;;4992879;28;20456;-73
2022/06/08 05:41:21;;;;;;;12.50;9.63;;;21.20;99.90;;;;;;4984436;28;21037;-69
2022/06/08 05:43:49;;;;;;;11.63;9.33;;;22.00;99.90;;;;;;4988617;28;20451;-69
2022/06/08 05:46:17;;;;;;;12.27;9.50;;;22.50;99.90;;;;;;4984688;28;20484;-70
2022/06/08 05:48:44;;;;;;;11.53;10.37;;;22.40;99.90;;;;;;4991524;28;20543;-70
2022/06/08 05:51:12;;;;;;;11.27;9.90;;;22.10;99.90;;;;;;4988000;28;20448;-69
2022/06/08 05:53:39;;;;;;;14.70;11.27;;;21.90;99.90;;;;;;4983370;28;20553;-67
2022/06/08 05:56:15;;;;;;;10.73;9.53;;;21.50;99.90;;;;;;4987925;28;20523;-67
2022/06/08 05:58:42;;;;;;;11.83;9.57;;;21.60;99.90;;;;;;4985112;28;20970;-70
2022/06/08 06:01:11;;;;;;;11.23;10.10;;;21.90;99.90;;;;;;4983252;28;20870;-67
2022/06/08 06:03:38;;;;;;;13.40;10.00;;;21.70;99.90;;;;;;4987504;28;20482;-69
2022/06/08 06:06:06;;;;;;;19.87;11.30;;;21.10;99.90;;;;;;4984982;28;20533;-67
2022/06/08 06:08:33;;;;;;;15.87;11.90;;;20.30;99.90;;;;;;4990816;28;20457;-72
2022/06/08 06:11:00;;;;;;;11.53;8.90;;;20.00;99.90;;;;;;4979676;28;20897;-72
2022/06/08 06:13:28;;;;;;;15.50;11.90;;;19.70;99.90;;;;;;4992027;28;20488;-68
2022/06/08 06:15:57;;;;;;;14.30;11.80;;;19.40;99.90;;;;;;4983570;28;20453;-69
2022/06/08 06:18:25;;;;;;;11.30;10.10;;;19.10;99.90;;;;;;4985510;28;20496;-70
2022/06/08 06:20:55;;;;;;;15.70;11.30;;;18.80;99.90;;;;;;4990305;28;20559;-72
2022/06/08 06:23:22;;;;;;;12.13;10.63;;;18.90;99.90;;;;;;4989228;28;20479;-71
2022/06/08 06:25:49;;;;;;;17.93;11.20;;;18.80;99.90;;;;;;4993217;28;20445;-69
2022/06/08 06:28:16;;;;;;;12.10;10.93;;;18.70;99.90;;;;;;4993636;28;20449;-73
2022/06/08 06:30:43;;;;;;;14.53;12.30;;;18.40;99.90;;;;;;4991761;28;20449;-71
2022/06/08 06:33:12;;;;;;;13.00;9.60;;;18.20;99.90;;;;;;4993879;28;20551;-72
2022/06/08 06:36:11;;;;;;;17.83;11.47;;;18.40;99.90;;;;;;4996744;28;20943;-71
2022/06/08 06:38:38;;;;;;;11.50;10.30;;;18.70;99.90;;;;;;4997030;28;20475;-72
2022/06/08 06:41:05;;;;;;;15.33;9.33;;;19.00;99.90;;;;;;4996900;28;20813;-73
2022/06/08 06:43:32;;;;;;;12.83;8.90;;;19.10;99.90;;;;;;4996933;28;20468;-69
2022/06/08 06:46:00;;;;;;;9.80;8.50;;;19.80;99.90;;;;;;4995101;28;20496;-70
2022/06/08 06:48:27;;;;;;;12.70;9.60;;;20.80;99.90;;;;;;4994634;28;20477;-71
2022/06/08 06:50:54;;;;;;;10.70;9.60;;;21.20;99.90;;;;;;5002640;28;20503;-72
2022/06/08 06:53:24;;;;;;;13.17;9.90;;;22.20;99.90;;;;;;5001522;28;20531;-69
2022/06/08 06:55:59;;;;;;;12.47;8.83;;;23.40;99.00;;;;;;5005051;28;20923;-71
2022/06/08 06:58:26;;;;;;;11.20;9.50;;;25.00;95.50;;;;;;5001064;28;21311;-69
2022/06/08 07:00:53;;;;;;;12.37;8.50;;;25.70;93.70;;;;;;5006706;28;20463;-69
2022/06/08 07:03:21;;;;;;;9.63;8.63;;;26.90;91.30;;;;;;5002762;28;20483;-69
2022/06/08 07:05:48;;;;;;;12.53;9.87;;;27.40;89.90;;;;;;5005795;28;20498;-69
2022/06/08 07:08:15;;;;;;;11.50;10.27;;;27.30;89.20;;;;;;5007229;28;20453;-69
2022/06/08 07:11:32;;;;;;;10.03;9.03;;;27.70;87.40;;;;;;4998416;28;20539;-69
2022/06/08 07:13:31;;;;;;;12.17;8.60;;;28.40;86.10;;;;;;5000176;28;20582;-71
2022/06/08 07:15:58;;;;;;;8.90;8.10;;;29.40;83.40;;;;;;4999567;28;20510;-67
2022/06/08 07:18:25;;;;;;;12.33;11.10;;;30.30;79.80;;;;;;4983582;28;20514;-68
2022/06/08 07:20:52;;;;;;;10.40;9.23;;;29.00;79.70;;;;;;4988709;28;20448;-68
2022/06/08 07:23:20;;;;;;;11.47;9.83;;;29.10;81.20;;;;;;4997395;28;20975;-70
2022/06/08 07:25:48;;;;;;;13.17;10.73;;;29.20;79.90;;;;;;4994071;28;20450;-69
2022/06/08 07:28:15;;;;;;;10.83;9.83;;;29.20;80.20;;;;;;4994499;28;20453;-68
2022/06/08 07:30:43;;;;;;;11.13;9.97;;;29.00;80.80;;;;;;5002084;28;20456;-67
2022/06/08 07:33:09;;;;;;;11.37;10.27;;;29.20;80.20;;;;;;4999164;28;20464;-69
2022/06/08 07:35:36;;;;;;;12.47;11.27;;;29.90;78.40;;;;;;4997893;28;20449;-70
2022/06/08 07:38:03;;;;;;;12.67;11.50;;;29.80;78.90;;;;;;4992496;28;20473;-66
2022/06/08 07:40:31;;;;;;;12.20;10.93;;;30.20;77.90;;;;;;4988553;28;20523;-70
2022/06/08 07:42:59;;;;;;;12.50;11.20;;;29.90;77.70;;;;;;4992897;28;20550;-67
2022/06/08 07:45:26;;;;;;;12.37;11.07;;;30.10;77.50;;;;;;4987911;28;20508;-70
2022/06/08 07:50:41;;;;;;;13.30;11.90;;;28.80;79.80;;;;;;4990268;28;20456;-71
2022/06/08 07:53:08;;;;;;;13.67;12.27;;;28.50;81.40;;;;;;4984403;28;20573;-70
2022/06/08 07:55:35;;;;;;;14.20;12.70;;;28.50;81.30;;;;;;4997471;28;20447;-71
2022/06/08 07:58:04;;;;;;;13.17;11.87;;;28.60;80.90;;;;;;4987265;28;20536;-66
2022/06/08 08:00:31;;;;;;;14.40;13.03;;;29.30;80.80;;;;;;4990553;28;20527;-70
2022/06/08 08:02:58;;;;;;;15.20;13.80;;;29.80;79.80;;;;;;4988798;28;20495;-69
2022/06/08 08:05:26;;;;;;;15.93;14.43;;;29.70;79.00;;;;;;4986368;28;20453;-70
2022/06/08 08:07:54;;;;;;;19.47;17.43;;;28.70;81.00;;;;;;4991517;28;20951;-69
2022/06/08 08:10:23;;;;;;;17.17;15.37;;;28.30;81.90;;;;;;4992691;28;20514;-66
2022/06/08 08:12:51;;;;;;;18.63;16.90;;;27.90;83.60;;;;;;4986594;28;21014;-71
2022/06/08 08:15:20;;;;;;;19.10;17.40;;;28.10;83.90;;;;;;4988117;28;20510;-71
2022/06/08 08:17:47;;;;;;;22.60;20.47;;;27.70;85.20;;;;;;4986800;28;20511;-72
2022/06/08 08:20:16;;;;;;;21.33;19.33;;;26.80;86.70;;;;;;4992768;28;20451;-72
2022/06/08 08:22:44;;;;;;;22.50;19.60;;;26.00;88.50;;;;;;4993333;28;20547;-69
2022/06/08 08:25:12;;;;;;;20.83;18.93;;;26.00;90.30;;;;;;4985918;28;20456;-71
2022/06/08 08:27:39;;;;;;;20.90;18.77;;;25.80;91.20;;;;;;4983002;28;20914;-72
2022/06/08 08:30:07;;;;;;;19.80;17.93;;;25.90;91.10;;;;;;4980690;28;20454;-69
2022/06/08 08:32:36;;;;;;;19.47;17.47;;;25.70;91.50;;;;;;4982478;28;20563;-70
2022/06/08 08:35:04;;;;;;;21.97;19.97;;;26.00;91.20;;;;;;4978146;28;20453;-71
2022/06/08 08:37:32;;;;;;;19.20;17.30;;;26.00;90.40;;;;;;4984356;28;20988;-70
2022/06/08 08:39:59;;;;;;;21.83;19.57;;;25.80;91.00;;;;;;4988382;28;20453;-71
2022/06/08 08:42:26;;;;;;;20.37;18.27;;;25.90;91.20;;;;;;4986650;28;20515;-72
2022/06/08 08:44:55;;;;;;;19.90;18.00;;;25.90;90.40;;;;;;4987532;28;20796;-71
2022/06/08 08:47:38;;;;;;;20.50;18.47;;;26.00;90.80;;;;;;4991095;28;20449;-70
2022/06/08 08:50:19;;;;;;;20.70;18.67;;;26.30;90.90;;;;;;4970322;28;20978;-70
2022/06/08 08:52:52;;;;;;;19.77;17.87;;;26.00;90.80;;;;;;4981287;28;20473;-70
2022/06/08 08:55:33;;;;;;;17.93;16.13;;;26.30;90.50;;;;;;4995576;28;20472;-70
2022/06/08 08:58:05;;;;;;;20.00;17.30;;;26.50;87.70;;;;;;4991730;28;20515;-69
2022/06/08 09:00:38;;;;;;;16.60;13.73;;;26.40;87.30;;;;;;4991871;28;20459;-70
2022/06/08 09:03:26;;;;;;;17.33;15.53;;;26.90;88.70;;;;;;4989909;28;20635;-69
2022/06/08 09:05:57;;;;;;;16.17;14.47;;;27.50;87.20;;;;;;4990092;28;20491;-70
2022/06/08 09:08:26;;;;;;;12.97;11.47;;;27.70;84.10;;;;;;4991590;28;20475;-69
2022/06/08 09:10:57;;;;;;;15.77;14.17;;;28.20;82.70;;;;;;4986569;28;20958;-70
2022/06/08 09:13:30;;;;;;;18.47;16.57;;;28.40;81.60;;;;;;4990688;28;20550;-69
2022/06/08 09:16:00;;;;;;;20.63;17.37;;;28.90;82.00;;;;;;4994192;28;20468;-69
2022/06/08 09:18:34;;;;;;;18.13;16.27;;;28.60;81.50;;;;;;4991609;28;20444;-70
2022/06/08 09:21:26;;;;;;;14.73;13.23;;;28.20;83.40;;;;;;4989099;28;20440;-70
2022/06/08 09:23:55;;;;;;;17.07;15.40;;;27.70;84.90;;;;;;4990867;28;20516;-70
2022/06/08 09:26:32;;;;;;;20.30;17.10;;;27.70;84.00;;;;;;4992981;28;20484;-71
2022/06/08 09:29:02;;;;;;;19.17;17.17;;;27.40;84.20;;;;;;4997942;28;20456;-72
2022/06/08 09:31:31;;;;;;;17.83;16.00;;;27.30;84.60;;;;;;4994109;28;20543;-69
2022/06/08 09:34:18;;;;;;;17.80;15.17;;;27.10;84.70;;;;;;4997011;28;20491;-68
2022/06/08 09:36:54;;;;;;;15.73;13.90;;;27.00;84.90;;;;;;4987409;28;20535;-70
2022/06/08 09:39:22;;;;;;;18.90;14.90;;;27.00;85.10;;;;;;4982432;28;20475;-73
2022/06/08 09:41:52;;;;;;;16.97;14.87;;;27.30;85.10;;;;;;4987512;28;20570;-70
2022/06/08 09:44:22;;;;;;;15.87;14.17;;;27.40;83.40;;;;;;4989981;28;20470;-69
2022/06/08 09:52:52;;;;;;;17.90;14.90;;;27.70;81.90;;;;;;4994751;28;21228;-70
2022/06/08 09:55:29;;;;;;;16.80;15.10;;;26.90;83.60;;;;;;4985073;28;20544;-72
2022/06/08 09:58:10;;;;;;;19.23;13.73;;;26.50;86.10;;;;;;4972449;28;20463;-71
2022/06/08 10:00:45;;;;;;;15.63;13.93;;;26.90;84.90;;;;;;4968962;28;20540;-71
2022/06/08 10:03:25;;;;;;;17.20;14.47;;;27.60;82.90;;;;;;4974008;28;20488;-71
2022/06/08 10:06:00;;;;;;;15.03;13.43;;;27.30;82.20;;;;;;5006947;28;20467;-71
2022/06/08 10:08:45;;;;;;;12.50;11.20;;;27.30;82.70;;;;;;5000627;28;20498;-72
2022/06/08 10:11:36;;;;;;;13.97;11.20;;;27.50;83.40;;;;;;4994842;28;20488;-72
2022/06/08 10:14:12;;;;;;;14.37;11.33;;;27.40;82.40;;;;;;4969732;28;20458;-71
2022/06/08 10:16:45;;;;;;;13.10;10.37;;;26.60;83.30;;;;;;4988257;28;20878;-70
2022/06/08 10:19:21;;;;;;;11.80;10.70;;;25.90;86.20;;;;;;4998457;28;20429;-72
2022/06/08 10:21:50;;;;;;;13.63;12.00;;;25.50;87.30;;;;;;4977564;28;20475;-72
2022/06/08 10:24:22;;;;;;;11.97;10.80;;;25.30;89.50;;;;;;4996221;28;20472;-70
2022/06/08 10:26:57;;;;;;;9.33;8.43;;;26.00;87.50;;;;;;4995182;28;20444;-72
2022/06/08 10:29:31;;;;;;;9.90;8.90;;;26.60;85.20;;;;;;4978109;28;20947;-70
2022/06/08 10:32:02;;;;;;;10.07;8.20;;;27.30;83.20;;;;;;4992835;28;20479;-70
2022/06/08 10:34:32;;;;;;;11.13;10.00;;;28.10;80.60;;;;;;4994473;28;20961;-70
2022/06/08 10:37:04;;;;;;;9.80;8.90;;;28.00;78.80;;;;;;4989050;28;20448;-71
2022/06/08 10:39:35;;;;;;;12.40;10.07;;;27.40;80.60;;;;;;4989987;28;20447;-72
2022/06/08 10:42:40;;;;;;;9.40;8.50;;;27.10;81.70;;;;;;4989905;28;20476;-71
2022/06/08 10:45:51;;;;;;;11.60;10.40;;;26.60;83.20;;;;;;4989241;28;20818;-73
2022/06/08 10:48:28;;;;;;;10.00;9.00;;;26.00;83.70;;;;;;4933479;29;20539;-71
2022/06/08 10:51:28;;;;;;;10.03;9.03;;;25.70;85.30;;;;;;4984507;28;20480;-71
2022/06/08 10:56:55;;;;;;;8.37;7.40;;;25.60;85.30;;;;;;5001058;28;20423;-71
2022/06/08 10:59:25;;;;;;;8.77;7.40;;;25.30;86.10;;;;;;4999158;28;20472;-70
2022/06/08 11:02:22;;;;;;;6.70;6.00;;;25.30;87.00;;;;;;4999810;28;20468;-71
2022/06/08 11:05:17;;;;;;;7.57;6.83;;;25.10;87.50;;;;;;4992465;28;20850;-70
2022/06/08 11:08:17;;;;;;;8.33;6.93;;;24.90;87.70;;;;;;4980898;28;20456;-70
2022/06/08 11:11:03;;;;;;;13.73;8.13;;;25.10;87.60;;;;;;4996998;28;20506;-70
2022/06/08 11:13:39;;;;;;;9.77;7.93;;;24.90;87.60;;;;;;4991376;28;20514;-71
2022/06/08 11:16:15;;;;;;;10.60;9.50;;;25.00;88.80;;;;;;5002662;28;20531;-70
2022/06/08 11:18:46;;;;;;;11.10;8.83;;;24.40;89.00;;;;;;4987825;28;20536;-72
2022/06/08 11:21:35;;;;;;;8.50;7.63;;;24.50;89.80;;;;;;5012311;28;20743;-70
2022/06/08 11:24:06;;;;;;;8.70;7.80;;;24.60;89.90;;;;;;4985769;28;20518;-73
2022/06/08 11:26:54;;;;;;;11.40;10.17;;;24.70;90.00;;;;;;4999887;28;20451;-71
2022/06/08 11:29:48;;;;;;;9.57;8.57;;;24.60;89.30;;;;;;4997479;28;20451;-71
2022/06/08 11:32:28;;;;;;;8.93;8.13;;;24.90;89.60;;;;;;4996766;28;20465;-72
2022/06/08 11:35:06;;;;;;;8.93;8.03;;;25.00;89.10;;;;;;4980447;28;20460;-72
2022/06/08 11:37:42;;;;;;;10.17;9.17;;;25.40;88.60;;;;;;4996341;28;20534;-70
2022/06/08 11:40:15;;;;;;;9.27;7.93;;;25.50;88.10;;;;;;4978321;28;20432;-71
2022/06/08 11:42:50;;;;;;;8.90;7.97;;;25.60;87.10;;;;;;4997620;28;20490;-71
2022/06/08 11:45:21;;;;;;;10.17;9.07;;;25.20;86.20;;;;;;4993857;28;20444;-69
2022/06/08 11:47:55;;;;;;;10.37;9.37;;;25.30;87.70;;;;;;4997048;28;20445;-72
2022/06/08 11:50:25;;;;;;;10.87;8.30;;;25.60;87.50;;;;;;4993185;28;20796;-72
2022/06/08 11:52:59;;;;;;;8.00;7.00;;;26.00;85.80;;;;;;4996473;28;20468;-72
2022/06/08 11:55:27;;;;;;;8.60;7.73;;;25.80;83.30;;;;;;4998329;28;20601;-72
2022/06/08 11:57:59;;;;;;;10.13;9.00;;;25.90;84.00;;;;;;5005369;28;20488;-70
2022/06/08 12:00:36;;;;;;;10.27;9.27;;;25.80;86.00;;;;;;5003745;28;20828;-72
2022/06/08 12:03:24;;;;;;;9.10;8.20;;;25.70;85.60;;;;;;4982305;28;20622;-73
2022/06/08 12:05:52;;;;;;;11.50;9.37;;;25.50;87.70;;;;;;4994228;28;20453;-73
2022/06/08 12:08:30;;;;;;;9.10;8.20;;;25.20;87.80;;;;;;5002170;28;20454;-71
2022/06/08 12:11:00;;;;;;;9.10;8.20;;;24.90;89.20;;;;;;4993844;28;20483;-71
2022/06/08 12:13:27;;;;;;;8.97;7.80;;;24.60;88.90;;;;;;5000936;28;20476;-72
2022/06/08 12:15:57;;;;;;;10.40;7.57;;;24.40;88.80;;;;;;5007653;28;20475;-72
2022/06/08 12:18:32;;;;;;;7.93;7.13;;;24.30;89.20;;;;;;5000790;28;20480;-71
2022/06/08 12:21:10;;;;;;;6.93;5.93;;;24.20;90.00;;;;;;5005879;28;20494;-71
2022/06/08 12:23:42;;;;;;;6.83;5.30;;;24.40;90.20;;;;;;4997893;28;20937;-72
2022/06/08 12:26:18;;;;;;;10.93;6.47;;;24.50;88.70;;;;;;4977686;28;20885;-71
2022/06/08 12:28:49;;;;;;;6.20;5.60;;;24.30;88.90;;;;;;4991022;28;20442;-72
2022/06/08 12:31:28;;;;;;;5.27;4.73;;;24.60;88.50;;;;;;4983366;28;20910;-71
2022/06/08 12:33:55;;;;;;;5.07;4.60;;;24.80;86.30;;;;;;4975317;28;20807;-71
2022/06/08 12:36:24;;;;;;;5.60;4.90;;;25.30;86.80;;;;;;4992851;28;20974;-72
2022/06/08 12:39:04;;;;;;;6.77;5.20;;;25.60;86.70;;;;;;4985016;28;21243;-71
2022/06/08 12:41:45;;;;;;;6.00;5.17;;;25.80;85.00;;;;;;4991990;28;20892;-72
2022/06/08 12:44:20;;;;;;;5.73;4.73;;;25.90;84.30;;;;;;4985575;28;20546;-72
2022/06/08 12:46:57;;;;;;;3.33;2.80;;;25.60;81.70;;;;;;4986832;28;20451;-71
2022/06/08 12:49:26;;;;;;;7.00;4.80;;;25.70;80.40;;;;;;4992463;28;20854;-72
2022/06/08 12:51:56;;;;;;;4.20;3.27;;;25.70;82.30;;;;;;4991940;28;20476;-73
2022/06/08 12:54:27;;;;;;;4.47;4.07;;;25.60;82.30;;;;;;4990399;28;20445;-70
2022/06/08 12:56:56;;;;;;;3.60;3.30;;;25.80;81.70;;;;;;4983550;28;20458;-72
2022/06/08 12:59:24;;;;;;;3.27;2.37;;;25.80;80.20;;;;;;4991246;28;20855;-72
2022/06/08 13:01:56;;;;;;;6.33;3.53;;;25.60;81.10;;;;;;4987420;28;20964;-73
2022/06/08 13:04:24;;;;;;;4.93;4.53;;;25.60;81.70;;;;;;4991417;28;20476;-73
2022/06/08 13:06:51;;;;;;;4.30;3.90;;;25.60;82.40;;;;;;4988619;28;20804;-72
2022/06/08 13:09:21;;;;;;;4.10;3.30;;;25.60;82.80;;;;;;4991587;28;20478;-72
2022/06/08 13:11:54;;;;;;;4.13;3.73;;;25.60;84.20;;;;;;4989832;28;20485;-72